createdAt,value
2023-03-19T00:02:16.774Z,8.77
2023-03-19T00:04:44.229Z,7.60
2023-03-19T00:07:11.252Z,7.53
2023-03-19T00:09:38.097Z,7.43
2023-03-19T00:12:04.956Z,5.40
2023-03-19T00:14:31.733Z,6.63
2023-03-19T00:16:58.439Z,5.82
2023-03-19T00:19:25.299Z,6.18
2023-03-19T00:21:52.222Z,6.65
2023-03-19T00:24:19.051Z,8.98
2023-03-19T00:26:45.606Z,8.00
2023-03-19T00:29:13.064Z,7.22
2023-03-19T00:31:40.793Z,7.00
2023-03-19T00:34:08.331Z,6.65
2023-03-19T00:36:34.909Z,4.88
2023-03-19T00:39:02.005Z,5.82
2023-03-19T00:41:29.489Z,5.55
2023-03-19T00:43:57.372Z,5.45
2023-03-19T00:46:25.611Z,5.80
2023-03-19T00:48:55.500Z,5.97
2023-03-19T00:51:23.724Z,5.90
2023-03-19T00:53:51.413Z,6.60
2023-03-19T00:56:18.409Z,5.45
2023-03-19T00:58:45.791Z,5.85
2023-03-19T01:01:15.661Z,6.45
2023-03-19T01:03:42.586Z,4.80
2023-03-19T01:06:09.156Z,5.25
2023-03-19T01:08:35.796Z,5.13
2023-03-19T01:11:11.223Z,5.95
2023-03-19T01:13:37.877Z,5.10
2023-03-19T01:16:05.014Z,5.13
2023-03-19T01:18:31.915Z,4.43
2023-03-19T01:20:58.797Z,6.30
2023-03-19T01:23:25.488Z,5.40
2023-03-19T01:25:52.213Z,6.47
2023-03-19T01:28:19.766Z,7.70
2023-03-19T01:30:46.364Z,5.05
2023-03-19T01:33:13.182Z,5.82
2023-03-19T01:35:39.997Z,5.15
2023-03-19T01:38:07.942Z,4.28
2023-03-19T01:40:34.724Z,5.25
2023-03-19T01:43:10.646Z,6.07
2023-03-19T01:45:39.544Z,5.47
2023-03-19T01:48:12.489Z,5.47
2023-03-19T01:50:45.942Z,5.20
2023-03-19T01:53:15.866Z,4.47
2023-03-19T01:55:42.566Z,4.88
2023-03-19T01:58:10.275Z,5.13
2023-03-19T02:00:38.307Z,3.72
2023-03-19T02:03:06.679Z,3.75
2023-03-19T02:05:33.980Z,4.38
2023-03-19T02:08:06.477Z,5.35
2023-03-19T02:10:34.135Z,3.47
2023-03-19T02:13:01.022Z,4.57
2023-03-19T02:15:27.678Z,5.60
2023-03-19T02:17:54.564Z,4.63
2023-03-19T02:20:32.408Z,4.57
2023-03-19T02:23:22.085Z,4.47
2023-03-19T02:25:48.521Z,4.50
2023-03-19T02:28:18.850Z,5.93
2023-03-19T02:30:46.036Z,4.88
2023-03-19T02:33:18.136Z,4.13
2023-03-19T02:35:50.529Z,4.45
2023-03-19T02:38:17.443Z,5.70
2023-03-19T02:40:57.132Z,4.10
2023-03-19T02:43:24.078Z,4.15
2023-03-19T02:45:50.635Z,4.13
2023-03-19T02:48:17.350Z,3.78
2023-03-19T02:50:43.857Z,4.50
2023-03-19T02:53:10.358Z,4.53
2023-03-19T02:55:37.019Z,5.03
2023-03-19T02:58:03.622Z,5.05
2023-03-19T03:00:30.606Z,4.22
2023-03-19T03:02:58.037Z,5.18
2023-03-19T03:05:24.752Z,3.20
2023-03-19T03:07:51.294Z,5.45
2023-03-19T03:10:18.134Z,5.30
2023-03-19T03:12:44.693Z,4.68
2023-03-19T03:15:11.325Z,3.63
2023-03-19T03:17:39.989Z,4.70
2023-03-19T03:20:08.513Z,4.63
2023-03-19T03:22:35.729Z,4.05
2023-03-19T03:25:02.212Z,4.60
2023-03-19T03:27:28.731Z,3.65
2023-03-19T03:29:55.451Z,3.53
2023-03-19T03:32:22.361Z,4.13
2023-03-19T03:34:49.037Z,4.63
2023-03-19T03:37:15.605Z,4.28
2023-03-19T03:39:42.559Z,3.47
2023-03-19T03:42:09.110Z,3.92
2023-03-19T03:44:36.238Z,3.67
2023-03-19T03:47:03.524Z,4.95
2023-03-19T03:49:30.091Z,4.82
2023-03-19T03:51:57.275Z,4.03
2023-03-19T03:54:23.779Z,3.83
2023-03-19T03:56:50.810Z,3.22
2023-03-19T03:59:17.369Z,4.20
2023-03-19T04:01:43.880Z,4.22
2023-03-19T04:04:10.617Z,4.20
2023-03-19T04:06:37.133Z,3.83
2023-03-19T04:09:03.941Z,4.70
2023-03-19T04:11:30.495Z,4.80
2023-03-19T04:13:57.778Z,3.58
2023-03-19T04:16:24.776Z,4.28
2023-03-19T04:18:51.380Z,3.92
2023-03-19T04:21:17.873Z,4.38
2023-03-19T04:23:44.353Z,4.45
2023-03-19T04:26:12.255Z,4.45
2023-03-19T04:28:38.834Z,3.92
2023-03-19T04:31:07.508Z,4.38
2023-03-19T04:33:34.741Z,4.38
2023-03-19T04:36:01.658Z,3.00
2023-03-19T04:38:28.584Z,3.22
2023-03-19T04:40:56.169Z,3.60
2023-03-19T04:43:23.700Z,3.22
2023-03-19T04:45:50.761Z,3.58
2023-03-19T04:48:18.413Z,3.45
2023-03-19T04:50:47.118Z,3.75
2023-03-19T04:53:13.954Z,4.97
2023-03-19T04:55:41.055Z,3.78
2023-03-19T04:58:09.033Z,3.78
2023-03-19T05:00:35.723Z,4.93
2023-03-19T05:03:02.318Z,3.95
2023-03-19T05:05:29.038Z,4.93
2023-03-19T05:07:57.311Z,3.28
2023-03-19T05:10:24.140Z,3.63
2023-03-19T05:12:50.654Z,4.40
2023-03-19T05:15:17.257Z,3.97
2023-03-19T05:17:43.819Z,3.60
2023-03-19T05:20:12.641Z,3.22
2023-03-19T05:22:39.219Z,3.58
2023-03-19T05:25:06.911Z,3.35
2023-03-19T05:27:33.559Z,4.80
2023-03-19T05:30:01.436Z,4.53
2023-03-19T05:32:28.349Z,5.60
2023-03-19T05:34:55.106Z,3.22
2023-03-19T05:37:21.916Z,5.38
2023-03-19T05:39:48.466Z,4.50
2023-03-19T05:42:15.620Z,3.83
2023-03-19T05:44:42.298Z,3.78
2023-03-19T05:47:10.180Z,5.55
2023-03-19T05:49:37.256Z,4.72
2023-03-19T05:52:04.171Z,3.75
2023-03-19T05:54:30.718Z,5.53
2023-03-19T05:56:57.337Z,6.22
2023-03-19T05:59:23.906Z,5.40
2023-03-19T06:01:50.688Z,4.30
2023-03-19T06:04:17.274Z,5.50
2023-03-19T06:06:43.874Z,5.90
2023-03-19T06:09:10.438Z,5.25
2023-03-19T06:11:39.477Z,6.38
2023-03-19T06:14:06.856Z,8.02
2023-03-19T06:16:33.347Z,6.75
2023-03-19T06:19:00.007Z,5.95
2023-03-19T06:21:29.553Z,7.40
2023-03-19T06:23:56.958Z,6.05
2023-03-19T06:26:24.190Z,6.95
2023-03-19T06:28:50.764Z,6.97
2023-03-19T06:31:17.548Z,8.32
2023-03-19T06:33:44.141Z,7.80
2023-03-19T06:36:10.717Z,7.55
2023-03-19T06:38:37.823Z,6.95
2023-03-19T06:41:04.608Z,7.57
2023-03-19T06:43:31.868Z,8.02
2023-03-19T06:45:58.467Z,7.57
2023-03-19T06:48:25.101Z,6.22
2023-03-19T06:50:51.642Z,6.45
2023-03-19T06:53:18.166Z,7.32
2023-03-19T06:55:46.837Z,7.35
2023-03-19T06:58:13.478Z,10.40
2023-03-19T07:00:40.030Z,8.00
2023-03-19T07:03:07.431Z,9.25
2023-03-19T07:05:34.051Z,7.88
2023-03-19T07:08:00.809Z,6.80
2023-03-19T07:10:27.377Z,7.68
2023-03-19T07:12:53.956Z,7.75
2023-03-19T07:15:21.615Z,9.88
2023-03-19T07:17:49.549Z,7.43
2023-03-19T07:20:16.401Z,8.60
2023-03-19T07:22:42.911Z,8.00
2023-03-19T07:25:09.665Z,7.90
2023-03-19T07:27:36.210Z,7.60
2023-03-19T07:30:02.822Z,8.27
2023-03-19T07:32:29.358Z,6.63
2023-03-19T07:34:56.154Z,7.80
2023-03-19T07:37:22.743Z,7.43
2023-03-19T07:39:49.265Z,6.65
2023-03-19T07:42:15.824Z,7.88
2023-03-19T07:44:42.353Z,7.53
2023-03-19T07:47:22.531Z,7.38
2023-03-19T07:49:54.711Z,8.65
2023-03-19T07:52:21.288Z,7.68
2023-03-19T07:54:47.926Z,6.82
2023-03-19T07:57:16.561Z,7.80
2023-03-19T07:59:43.069Z,11.48
2023-03-19T08:02:13.340Z,11.80
2023-03-19T08:04:42.865Z,9.45
2023-03-19T08:07:12.828Z,11.55
2023-03-19T08:09:40.676Z,12.52
2023-03-19T08:12:07.768Z,12.57
2023-03-19T08:14:34.335Z,11.95
2023-03-19T08:17:01.168Z,8.80
2023-03-19T08:19:28.210Z,8.77
2023-03-19T08:21:54.725Z,12.02
2023-03-19T08:24:21.507Z,10.73
2023-03-19T08:26:48.010Z,8.70
2023-03-19T08:29:14.587Z,9.98
2023-03-19T08:31:41.219Z,9.07
2023-03-19T08:34:10.324Z,9.80
2023-03-19T08:36:36.843Z,10.65
2023-03-19T08:39:04.216Z,10.10
2023-03-19T08:41:31.251Z,9.80
2023-03-19T08:43:57.783Z,10.90
2023-03-19T08:46:24.473Z,9.68
2023-03-19T08:48:51.054Z,9.18
2023-03-19T08:51:17.613Z,9.95
2023-03-19T08:53:45.396Z,9.80
2023-03-19T08:56:11.989Z,10.55
2023-03-19T08:58:40.065Z,8.93
2023-03-19T09:01:12.762Z,15.15
2023-03-19T09:03:40.731Z,17.27
2023-03-19T09:06:09.909Z,15.93
2023-03-19T09:08:37.534Z,18.60
2023-03-19T09:11:05.505Z,17.00
2023-03-19T09:13:32.577Z,20.17
2023-03-19T09:15:59.178Z,22.20
2023-03-19T09:18:25.907Z,19.95
2023-03-19T09:20:53.984Z,24.70
2023-03-19T09:23:21.294Z,23.90
2023-03-19T09:25:48.687Z,34.22
2023-03-19T09:28:15.414Z,34.97
2023-03-19T09:30:41.971Z,34.65
2023-03-19T09:33:08.722Z,51.70
2023-03-19T09:35:35.665Z,54.83
2023-03-19T09:38:03.121Z,45.85
2023-03-19T09:40:43.846Z,39.15
2023-03-19T09:43:31.790Z,42.35
2023-03-19T09:46:01.247Z,54.17
2023-03-19T09:48:54.733Z,40.80
2023-03-19T09:51:30.335Z,31.77
2023-03-19T09:54:05.317Z,35.92
2023-03-19T09:56:33.198Z,34.17
2023-03-19T09:59:00.412Z,33.95
2023-03-19T10:01:33.665Z,33.40
2023-03-19T10:04:25.121Z,36.55
2023-03-19T10:06:59.613Z,36.25
2023-03-19T10:09:43.111Z,45.83
2023-03-19T10:12:27.591Z,49.08
2023-03-19T10:15:17.295Z,37.55
2023-03-19T10:17:58.184Z,32.90
2023-03-19T10:20:33.659Z,33.22
2023-03-19T10:23:33.741Z,40.55
2023-03-19T10:26:03.876Z,28.83
2023-03-19T10:28:30.815Z,34.55
2023-03-19T10:31:22.204Z,33.72
2023-03-19T10:34:16.965Z,34.15
2023-03-19T10:36:43.475Z,35.72
2023-03-19T10:39:10.039Z,38.53
2023-03-19T10:42:05.266Z,35.22
2023-03-19T10:44:36.919Z,34.40
2023-03-19T10:47:15.409Z,32.47
2023-03-19T10:49:42.727Z,33.25
2023-03-19T10:52:22.766Z,32.28
2023-03-19T10:54:55.806Z,31.00
2023-03-19T10:57:26.696Z,30.67
2023-03-19T10:59:53.268Z,30.77
2023-03-19T11:02:23.312Z,30.33
2023-03-19T11:05:07.691Z,30.05
2023-03-19T11:07:36.291Z,29.48
2023-03-19T11:10:03.488Z,42.35
2023-03-19T11:12:35.527Z,34.30
2023-03-19T11:15:07.541Z,38.13
2023-03-19T11:17:45.029Z,31.13
2023-03-19T11:20:23.557Z,35.03
2023-03-19T11:22:52.547Z,44.83
2023-03-19T11:25:27.065Z,39.03
2023-03-19T11:28:19.691Z,34.50
2023-03-19T11:31:15.909Z,34.35
2023-03-19T11:34:20.040Z,34.50
2023-03-19T11:37:01.778Z,32.40
2023-03-19T11:39:49.863Z,57.33
2023-03-19T11:42:36.787Z,40.15
2023-03-19T11:45:13.614Z,44.13
2023-03-19T11:48:02.651Z,43.22
2023-03-19T11:50:48.382Z,49.92
2023-03-19T11:53:41.867Z,52.03
2023-03-19T11:56:27.705Z,72.23
2023-03-19T11:59:25.633Z,78.85
2023-03-19T12:02:14.052Z,53.13
2023-03-19T12:05:09.272Z,82.03
2023-03-19T12:07:48.075Z,59.42
2023-03-19T12:10:23.610Z,49.47
2023-03-19T12:13:19.708Z,45.45
2023-03-19T12:16:15.915Z,48.72
2023-03-19T12:18:44.981Z,43.20
2023-03-19T12:21:35.337Z,143.40
2023-03-19T12:24:04.533Z,69.47
2023-03-19T12:26:54.048Z,80.07
2023-03-19T12:29:43.801Z,77.22
2023-03-19T12:32:27.290Z,85.03
2023-03-19T12:34:57.799Z,73.55
2023-03-19T12:37:36.488Z,73.55
2023-03-19T12:40:41.899Z,86.97
2023-03-19T12:43:43.024Z,81.88
2023-03-19T12:46:14.692Z,82.97
2023-03-19T12:48:53.104Z,84.47
2023-03-19T12:51:27.732Z,76.50
2023-03-19T12:53:58.780Z,79.68
2023-03-19T12:56:49.223Z,75.72
2023-03-19T12:59:33.568Z,78.97
2023-03-19T13:02:18.164Z,92.57
2023-03-19T13:05:12.844Z,75.05
2023-03-19T13:07:57.846Z,79.45
2023-03-19T13:10:25.721Z,73.15
2023-03-19T13:12:53.991Z,71.97
2023-03-19T13:15:37.321Z,68.43
2023-03-19T13:18:46.444Z,70.00
2023-03-19T13:21:24.605Z,66.43
2023-03-19T13:24:23.141Z,102.70
2023-03-19T13:26:51.042Z,145.35
2023-03-19T13:29:26.977Z,99.10
2023-03-19T13:32:05.652Z,110.03
2023-03-19T13:34:35.637Z,107.32
2023-03-19T13:37:15.347Z,95.93
2023-03-19T13:39:43.638Z,89.97
2023-03-19T13:42:10.202Z,112.00
2023-03-19T13:44:43.041Z,96.50
2023-03-19T13:47:36.360Z,98.40
2023-03-19T13:50:10.888Z,97.32
2023-03-19T13:52:50.087Z,106.45
2023-03-19T13:55:33.141Z,113.70
2023-03-19T13:58:37.775Z,107.73
2023-03-19T14:01:24.191Z,95.18
2023-03-19T14:03:58.739Z,90.50
2023-03-19T14:06:53.616Z,80.78
2023-03-19T14:09:43.045Z,93.68
2023-03-19T14:12:20.120Z,96.15
2023-03-19T14:14:56.046Z,82.60
2023-03-19T14:17:24.378Z,92.57
2023-03-19T14:19:53.154Z,82.20
2023-03-19T14:22:59.021Z,80.43
2023-03-19T14:25:27.663Z,85.68
2023-03-19T14:27:59.261Z,74.30
2023-03-19T14:30:35.147Z,110.55
2023-03-19T14:33:08.181Z,156.27
2023-03-19T14:35:45.074Z,168.32
2023-03-19T14:38:31.949Z,197.50
2023-03-19T14:41:01.079Z,171.27
2023-03-19T14:43:51.444Z,172.35
2023-03-19T14:46:40.428Z,199.60
2023-03-19T14:49:42.966Z,178.63
2023-03-19T14:52:35.642Z,158.70
2023-03-19T14:55:12.610Z,145.82
2023-03-19T14:57:39.210Z,163.43
2023-03-19T15:00:18.662Z,151.35
2023-03-19T15:02:51.204Z,142.50
2023-03-19T15:05:28.596Z,136.27
2023-03-19T15:08:04.958Z,145.68
2023-03-19T15:10:44.107Z,129.93
2023-03-19T15:13:22.618Z,130.10
2023-03-19T15:16:05.600Z,128.25
2023-03-19T15:18:32.225Z,116.43
2023-03-19T15:20:59.202Z,115.45
2023-03-19T15:23:28.634Z,114.20
2023-03-19T15:26:03.958Z,110.25
2023-03-19T15:28:44.778Z,105.82
2023-03-19T15:31:29.887Z,102.95
2023-03-19T15:33:58.970Z,99.78
2023-03-19T15:36:31.200Z,94.05
2023-03-19T15:39:02.601Z,99.30
2023-03-19T15:41:31.986Z,94.13
2023-03-19T15:44:01.026Z,98.70
2023-03-19T15:46:32.818Z,138.02
2023-03-19T15:49:17.360Z,143.05
2023-03-19T15:51:51.466Z,172.63
2023-03-19T15:54:19.117Z,167.50
2023-03-19T15:56:46.282Z,166.50
2023-03-19T15:59:12.947Z,160.52
2023-03-19T16:01:39.666Z,155.10
2023-03-19T16:04:08.635Z,155.90
2023-03-19T16:06:39.630Z,151.80
2023-03-19T16:09:27.132Z,151.15
2023-03-19T16:11:54.497Z,140.82
2023-03-19T16:14:29.678Z,138.30
2023-03-19T16:17:11.542Z,138.10
2023-03-19T16:19:51.943Z,132.18
2023-03-19T16:22:23.320Z,131.57
2023-03-19T16:24:51.922Z,127.40
2023-03-19T16:27:39.948Z,123.22
2023-03-19T16:30:16.080Z,115.68
2023-03-19T16:32:42.686Z,113.80
2023-03-19T16:35:15.402Z,111.53
2023-03-19T16:37:49.737Z,107.57
2023-03-19T16:40:23.608Z,135.18
2023-03-19T16:42:51.236Z,137.85
2023-03-19T16:45:22.386Z,143.07
2023-03-19T16:47:51.389Z,165.18
2023-03-19T16:50:19.911Z,176.43
2023-03-19T16:52:47.734Z,173.25
2023-03-19T16:55:23.841Z,178.05
2023-03-19T16:58:11.488Z,171.63
2023-03-19T17:00:38.075Z,162.93
2023-03-19T17:03:11.064Z,163.40
2023-03-19T17:05:37.742Z,163.25
2023-03-19T17:08:04.401Z,158.10
2023-03-19T17:10:32.363Z,142.90
2023-03-19T17:13:01.081Z,134.68
2023-03-19T17:15:35.548Z,146.10
2023-03-19T17:18:04.302Z,137.60
2023-03-19T17:20:36.722Z,135.13
2023-03-19T17:23:12.894Z,126.63
2023-03-19T17:25:40.474Z,124.88
2023-03-19T17:28:06.986Z,123.55
2023-03-19T17:30:34.314Z,125.85
2023-03-19T17:33:01.087Z,112.55
2023-03-19T17:35:27.935Z,116.85
2023-03-19T17:37:54.982Z,115.70
2023-03-19T17:40:27.611Z,114.95
2023-03-19T17:42:56.128Z,107.32
2023-03-19T17:45:29.834Z,101.88
2023-03-19T17:50:27.091Z,96.07
2023-03-19T17:52:53.663Z,96.65
2023-03-19T17:55:23.329Z,91.78
2023-03-19T17:57:51.160Z,93.47
2023-03-19T18:00:20.086Z,101.90
2023-03-19T18:02:50.744Z,109.80
2023-03-19T18:05:20.092Z,113.88
2023-03-19T18:07:48.342Z,123.03
2023-03-19T18:10:27.597Z,132.23
2023-03-19T18:12:54.765Z,133.45
2023-03-19T18:15:22.313Z,142.25
2023-03-19T18:17:56.044Z,145.77
2023-03-19T18:22:51.038Z,140.05
2023-03-19T18:25:22.911Z,142.30
2023-03-19T18:27:49.858Z,140.20
2023-03-19T18:30:19.448Z,138.50
2023-03-19T18:32:49.483Z,134.05
2023-03-19T18:35:19.041Z,132.68
2023-03-19T18:37:48.648Z,127.72
2023-03-19T18:40:19.291Z,127.88
2023-03-19T18:42:47.127Z,119.95
2023-03-19T18:45:15.234Z,119.60
2023-03-19T18:47:43.526Z,121.80
2023-03-19T18:50:19.783Z,113.45
2023-03-19T18:52:48.198Z,115.85
2023-03-19T18:55:15.588Z,118.38
2023-03-19T18:57:54.124Z,118.53
2023-03-19T19:00:28.331Z,117.75
2023-03-19T19:02:56.632Z,125.85
2023-03-19T19:05:27.653Z,129.13
2023-03-19T19:07:59.885Z,138.30
2023-03-19T19:10:32.461Z,135.30
2023-03-19T19:13:00.289Z,132.50
2023-03-19T19:15:34.182Z,126.60
2023-03-19T19:18:03.087Z,126.70
2023-03-19T19:20:29.863Z,120.75
2023-03-19T19:22:56.610Z,122.97
2023-03-19T19:25:26.200Z,116.78
2023-03-19T19:28:06.437Z,110.75
2023-03-19T19:30:33.161Z,116.32
2023-03-19T19:32:59.943Z,106.22
2023-03-19T19:35:28.263Z,101.22
2023-03-19T19:37:55.480Z,102.75
2023-03-19T19:40:26.992Z,99.05
2023-03-19T19:42:53.923Z,98.95
2023-03-19T19:45:41.767Z,86.43
2023-03-19T19:48:19.575Z,99.35
2023-03-19T19:50:47.409Z,96.93
2023-03-19T19:53:15.165Z,99.53
2023-03-19T19:55:42.787Z,100.15
2023-03-19T19:58:24.721Z,101.30
2023-03-19T20:01:02.901Z,95.15
2023-03-19T20:03:32.775Z,103.07
2023-03-19T20:06:01.451Z,107.90
2023-03-19T20:08:28.772Z,103.53
2023-03-19T20:10:56.227Z,95.90
2023-03-19T20:13:29.112Z,101.10
2023-03-19T20:15:58.717Z,108.00
2023-03-19T20:18:30.804Z,101.95
2023-03-19T20:20:59.285Z,108.60
2023-03-19T20:23:26.254Z,110.63
2023-03-19T20:25:55.939Z,108.80
2023-03-19T20:28:26.306Z,109.13
2023-03-19T20:30:54.239Z,103.82
2023-03-19T20:33:21.676Z,108.53
2023-03-19T20:35:48.636Z,97.82
2023-03-19T20:38:15.835Z,88.55
2023-03-19T20:40:45.522Z,98.60
2023-03-19T20:43:32.344Z,85.85
2023-03-19T20:46:02.847Z,87.10
2023-03-19T20:48:30.683Z,90.25
2023-03-19T20:50:58.343Z,85.28
2023-03-19T20:53:25.681Z,83.07
2023-03-19T20:55:52.797Z,81.35
2023-03-19T20:58:27.470Z,84.63
2023-03-19T21:00:56.429Z,78.97
2023-03-19T21:03:25.341Z,77.40
2023-03-19T21:05:55.410Z,78.18
2023-03-19T21:08:32.327Z,76.55
2023-03-19T21:10:58.989Z,73.22
2023-03-19T21:13:25.937Z,79.75
2023-03-19T21:15:53.921Z,75.10
2023-03-19T21:18:20.556Z,70.05
2023-03-19T21:20:50.907Z,75.25
2023-03-19T21:23:20.520Z,73.78
2023-03-19T21:25:48.191Z,71.55
2023-03-19T21:28:28.184Z,68.38
2023-03-19T21:30:54.740Z,72.20
2023-03-19T21:33:27.159Z,68.07
2023-03-19T21:35:55.111Z,72.68
2023-03-19T21:38:22.665Z,69.93
2023-03-19T21:41:00.562Z,69.10
2023-03-19T21:43:34.255Z,66.40
2023-03-19T21:48:44.326Z,72.45
2023-03-19T21:51:16.630Z,68.95
2023-03-19T21:53:43.586Z,68.45
2023-03-19T21:56:22.195Z,67.25
2023-03-19T21:58:51.442Z,67.40
2023-03-19T22:01:20.655Z,67.95
2023-03-19T22:03:48.040Z,64.65
2023-03-19T22:06:14.641Z,69.68
2023-03-19T22:08:44.455Z,64.88
2023-03-19T22:11:35.938Z,65.22
2023-03-19T22:14:14.469Z,68.03
2023-03-19T22:16:41.205Z,59.35
2023-03-19T22:19:13.026Z,59.55
2023-03-19T22:21:39.548Z,62.13
2023-03-19T22:24:06.304Z,58.90
2023-03-19T22:26:41.720Z,59.00
2023-03-19T22:29:15.766Z,60.90
2023-03-19T22:31:42.382Z,59.05
2023-03-19T22:34:17.560Z,60.78
2023-03-19T22:36:44.963Z,57.05
2023-03-19T22:39:11.663Z,56.75
2023-03-19T22:41:42.652Z,55.88
2023-03-19T22:44:16.359Z,55.00
2023-03-19T22:49:13.886Z,55.53
2023-03-19T22:51:40.432Z,54.65
2023-03-19T22:54:07.089Z,51.75
2023-03-19T22:56:33.622Z,50.90
2023-03-19T22:59:00.174Z,56.10
2023-03-19T23:01:31.558Z,52.38
2023-03-19T23:04:25.384Z,53.70
2023-03-19T23:06:54.168Z,50.30
2023-03-19T23:09:24.095Z,46.95
2023-03-19T23:11:51.573Z,51.72
2023-03-19T23:14:29.042Z,50.50
2023-03-19T23:19:29.159Z,47.35
2023-03-19T23:21:56.432Z,44.60
2023-03-19T23:24:24.154Z,47.28
2023-03-19T23:26:53.856Z,44.80
2023-03-19T23:29:24.547Z,42.97
2023-03-19T23:31:51.333Z,43.90
2023-03-19T23:34:17.893Z,45.03
2023-03-19T23:36:44.525Z,44.97
2023-03-19T23:39:11.463Z,43.97
2023-03-19T23:41:48.228Z,44.08
2023-03-19T23:44:17.646Z,40.50
2023-03-19T23:46:49.272Z,42.88
2023-03-19T23:49:24.120Z,43.35
2023-03-19T23:51:50.716Z,37.05
2023-03-19T23:54:20.276Z,37.97
2023-03-19T23:56:46.774Z,36.95
2023-03-19T23:59:13.343Z,38.05
